Time,TemperatureF,DewpointF,PressureIn,WindDirection,WindDirectionDegrees,WindSpeedMPH,WindSpeedGustMPH,Humidity,HourlyPrecipIn,Conditions,Clouds,dailyrainin,SoftwareType,DateUTC
2013-04-19 00:03:00,39.0,36.0,-100.00,East,90,7.0,17.0,89,-99.99,,,-99.99,,2013-04-19 05:03:00,
2013-04-19 00:11:00,39.0,36.0,-100.00,East,90,7.0,17.0,89,-99.99,,,-99.99,,2013-04-19 05:11:00,
2013-04-19 00:22:00,39.0,36.0,-100.00,East,90,7.0,17.0,89,-99.99,,,-99.99,,2013-04-19 05:22:00,
2013-04-19 00:42:00,37.0,34.0,-100.00,East,90,11.0,21.0,89,-99.99,,,-99.99,,2013-04-19 05:42:00,
2013-04-19 00:52:00,37.0,34.0,-100.00,East,90,11.0,21.0,89,-99.99,,,-99.99,,2013-04-19 05:52:00,
2013-04-19 01:02:00,37.0,34.0,-100.00,East,90,11.0,21.0,89,-99.99,,,-99.99,,2013-04-19 06:02:00,
2013-04-19 01:11:00,37.0,34.0,-100.00,East,90,11.0,21.0,89,-99.99,,,-99.99,,2013-04-19 06:11:00,
2013-04-19 01:22:00,37.0,34.0,-100.00,East,90,11.0,21.0,89,-99.99,,,-99.99,,2013-04-19 06:22:00,
2013-04-19 01:53:00,35.0,32.0,-100.00,East,95,9.0,14.0,87,-99.99,,,-99.99,,2013-04-19 06:53:00,
2013-04-19 02:02:00,35.0,32.0,-100.00,East,95,9.0,14.0,87,-99.99,,,-99.99,,2013-04-19 07:02:00,
2013-04-19 02:12:00,35.0,32.0,-100.00,East,95,9.0,14.0,87,-99.99,,,-99.99,,2013-04-19 07:12:00,
2013-04-19 02:21:00,35.0,32.0,-100.00,East,95,9.0,14.0,87,-99.99,,,-99.99,,2013-04-19 07:21:00,
2013-04-19 02:42:00,33.0,30.0,-100.00,East,85,7.0,17.0,87,-99.99,,,-99.99,,2013-04-19 07:42:00,
2013-04-19 02:52:00,33.0,30.0,-100.00,East,85,7.0,17.0,87,-99.99,,,-99.99,,2013-04-19 07:52:00,
2013-04-19 03:02:00,33.0,30.0,-100.00,East,85,7.0,17.0,87,-99.99,,,-99.99,,2013-04-19 08:02:00,
2013-04-19 03:12:00,33.0,30.0,-100.00,East,85,7.0,17.0,87,-99.99,,,-99.99,,2013-04-19 08:12:00,
2013-04-19 03:42:00,33.0,29.0,-100.00,East,85,7.0,17.0,87,-99.99,,,-99.99,,2013-04-19 08:42:00,
2013-04-19 03:52:00,33.0,29.0,-100.00,East,85,7.0,17.0,87,-99.99,,,-99.99,,2013-04-19 08:52:00,
2013-04-19 04:01:00,33.0,29.0,-100.00,East,85,7.0,17.0,87,-99.99,,,-99.99,,2013-04-19 09:01:00,
2013-04-19 04:11:00,33.0,29.0,-100.00,East,85,7.0,17.0,87,-99.99,,,-99.99,,2013-04-19 09:11:00,
2013-04-19 04:21:00,33.0,29.0,-100.00,East,85,7.0,17.0,87,-99.99,,,-99.99,,2013-04-19 09:21:00,
2013-04-19 04:22:00,32.0,29.0,-100.00,ESE,105,7.0,19.0,87,-99.99,,,-99.99,,2013-04-19 09:22:00,
2013-04-19 04:43:00,32.0,29.0,-100.00,ESE,105,7.0,19.0,87,-99.99,,,-99.99,,2013-04-19 09:43:00,
2013-04-19 04:52:00,32.0,29.0,-100.00,ESE,105,7.0,19.0,87,-99.99,,,-99.99,,2013-04-19 09:52:00,
2013-04-19 05:02:00,32.0,29.0,-100.00,ESE,105,7.0,19.0,87,-99.99,,,-99.99,,2013-04-19 10:02:00,
2013-04-19 05:13:00,32.0,29.0,-100.00,ESE,105,7.0,19.0,87,-99.99,,,-99.99,,2013-04-19 10:13:00,
2013-04-19 05:21:00,32.0,28.0,-100.00,East,85,7.0,14.0,87,-99.99,,,-99.99,,2013-04-19 10:21:00,
2013-04-19 05:42:00,32.0,28.0,-100.00,East,85,7.0,14.0,87,-99.99,,,-99.99,,2013-04-19 10:42:00,
2013-04-19 05:52:00,32.0,28.0,-100.00,East,85,7.0,14.0,87,-99.99,,,-99.99,,2013-04-19 10:52:00,
2013-04-19 06:03:00,32.0,28.0,-100.00,East,85,7.0,14.0,87,-99.99,,,-99.99,,2013-04-19 11:03:00,
2013-04-19 06:11:00,32.0,28.0,-100.00,East,85,7.0,14.0,87,-99.99,,,-99.99,,2013-04-19 11:11:00,
2013-04-19 06:43:00,32.0,28.0,-100.00,East,100,9.0,22.0,86,-99.99,,,-99.99,,2013-04-19 11:43:00,
2013-04-19 06:52:00,32.0,28.0,-100.00,East,100,9.0,22.0,86,-99.99,,,-99.99,,2013-04-19 11:52:00,
2013-04-19 07:03:00,32.0,28.0,-100.00,East,100,9.0,22.0,86,-99.99,,,-99.99,,2013-04-19 12:03:00,
2013-04-19 07:12:00,32.0,28.0,-100.00,East,100,9.0,22.0,86,-99.99,,,-99.99,,2013-04-19 12:12:00,
2013-04-19 07:21:00,32.0,27.0,-100.00,SE,135,8.0,17.0,85,-99.99,,,-99.99,,2013-04-19 12:21:00,
2013-04-19 07:42:00,32.0,27.0,-100.00,SE,135,8.0,17.0,85,-99.99,,,-99.99,,2013-04-19 12:42:00,
2013-04-19 07:53:00,32.0,27.0,-100.00,SE,135,8.0,17.0,85,-99.99,,,-99.99,,2013-04-19 12:53:00,
2013-04-19 08:01:00,32.0,27.0,-100.00,SE,135,8.0,17.0,85,-99.99,,,-99.99,,2013-04-19 13:01:00,
2013-04-19 08:11:00,32.0,27.0,-100.00,SE,135,8.0,17.0,85,-99.99,,,-99.99,,2013-04-19 13:11:00,
2013-04-19 08:52:00,32.0,27.0,-100.00,ESE,120,6.0,14.0,81,-99.99,,,-99.99,,2013-04-19 13:52:00,
2013-04-19 09:02:00,32.0,27.0,-100.00,ESE,120,6.0,14.0,81,-99.99,,,-99.99,,2013-04-19 14:02:00,
2013-04-19 09:11:00,32.0,27.0,-100.00,ESE,120,6.0,14.0,81,-99.99,,,-99.99,,2013-04-19 14:11:00,
2013-04-19 09:22:00,32.0,27.0,-100.00,ESE,120,6.0,14.0,81,-99.99,,,-99.99,,2013-04-19 14:22:00,
2013-04-19 09:43:00,32.0,22.0,-100.00,South,180,10.0,25.0,65,-99.99,,,-99.99,,2013-04-19 14:43:00,
2013-04-19 09:52:00,32.0,22.0,-100.00,South,180,10.0,25.0,65,-99.99,,,-99.99,,2013-04-19 14:52:00,
2013-04-19 10:02:00,32.0,22.0,-100.00,South,180,10.0,25.0,65,-99.99,,,-99.99,,2013-04-19 15:02:00,
2013-04-19 10:12:00,32.0,22.0,-100.00,South,180,10.0,25.0,65,-99.99,,,-99.99,,2013-04-19 15:12:00,
2013-04-19 10:21:00,32.0,22.0,-100.00,South,180,10.0,25.0,65,-99.99,,,-99.99,,2013-04-19 15:21:00,
2013-04-19 10:22:00,32.0,20.0,-100.00,SE,140,8.0,22.0,59,-99.99,,,-99.99,,2013-04-19 15:22:00,
2013-04-19 10:43:00,32.0,20.0,-100.00,SE,140,8.0,22.0,59,-99.99,,,-99.99,,2013-04-19 15:43:00,
2013-04-19 10:52:00,32.0,20.0,-100.00,SE,140,8.0,22.0,59,-99.99,,,-99.99,,2013-04-19 15:52:00,
2013-04-19 11:03:00,32.0,20.0,-100.00,SE,140,8.0,22.0,59,-99.99,,,-99.99,,2013-04-19 16:03:00,
2013-04-19 11:13:00,32.0,20.0,-100.00,SE,140,8.0,22.0,59,-99.99,,,-99.99,,2013-04-19 16:13:00,
2013-04-19 11:43:00,32.0,15.0,-100.00,SSE,150,9.0,20.0,49,-99.99,,,-99.99,,2013-04-19 16:43:00,
2013-04-19 11:53:00,32.0,15.0,-100.00,SSE,150,9.0,20.0,49,-99.99,,,-99.99,,2013-04-19 16:53:00,
2013-04-19 12:02:00,32.0,15.0,-100.00,SSE,150,9.0,20.0,49,-99.99,,,-99.99,,2013-04-19 17:02:00,
2013-04-19 12:12:00,32.0,15.0,-100.00,SSE,150,9.0,20.0,49,-99.99,,,-99.99,,2013-04-19 17:12:00,
2013-04-19 12:21:00,32.0,15.0,-100.00,SSE,150,9.0,20.0,49,-99.99,,,-99.99,,2013-04-19 17:21:00,
2013-04-19 12:43:00,34.0,20.0,-100.00,SSE,160,7.0,21.0,57,-99.99,,,-99.99,,2013-04-19 17:43:00,
2013-04-19 12:52:00,34.0,20.0,-100.00,SSE,160,7.0,21.0,57,-99.99,,,-99.99,,2013-04-19 17:52:00,
2013-04-19 13:02:00,34.0,20.0,-100.00,SSE,160,7.0,21.0,57,-99.99,,,-99.99,,2013-04-19 18:02:00,
2013-04-19 13:13:00,34.0,20.0,-100.00,SSE,160,7.0,21.0,57,-99.99,,,-99.99,,2013-04-19 18:13:00,
2013-04-19 13:22:00,34.0,20.0,-100.00,SSE,160,7.0,21.0,57,-99.99,,,-99.99,,2013-04-19 18:22:00,
2013-04-19 13:52:00,38.0,19.0,-100.00,ESE,110,9.0,24.0,47,-99.99,,,-99.99,,2013-04-19 18:52:00,
2013-04-19 14:02:00,38.0,19.0,-100.00,ESE,110,9.0,24.0,47,-99.99,,,-99.99,,2013-04-19 19:02:00,
2013-04-19 14:11:00,38.0,19.0,-100.00,ESE,110,9.0,24.0,47,-99.99,,,-99.99,,2013-04-19 19:11:00,
2013-04-19 14:20:00,35.0,14.0,-100.00,SSE,155,13.0,24.0,42,-99.99,,,-99.99,,2013-04-19 19:20:00,
2013-04-19 14:21:00,38.0,19.0,-100.00,ESE,110,9.0,24.0,47,-99.99,,,-99.99,,2013-04-19 19:21:00,
2013-04-19 14:42:00,35.0,14.0,-100.00,SSE,155,13.0,24.0,42,-99.99,,,-99.99,,2013-04-19 19:42:00,
2013-04-19 14:52:00,35.0,14.0,-100.00,SSE,155,13.0,24.0,42,-99.99,,,-99.99,,2013-04-19 19:52:00,
2013-04-19 15:02:00,35.0,14.0,-100.00,SSE,155,13.0,24.0,42,-99.99,,,-99.99,,2013-04-19 20:02:00,
2013-04-19 15:11:00,35.0,14.0,-100.00,SSE,155,13.0,24.0,42,-99.99,,,-99.99,,2013-04-19 20:11:00,
2013-04-19 15:52:00,36.0,11.0,-100.00,SE,145,7.0,23.0,36,-99.99,,,-99.99,,2013-04-19 20:52:00,
2013-04-19 16:01:00,36.0,11.0,-100.00,SE,145,7.0,23.0,36,-99.99,,,-99.99,,2013-04-19 21:01:00,
2013-04-19 16:11:00,36.0,11.0,-100.00,SE,145,7.0,23.0,36,-99.99,,,-99.99,,2013-04-19 21:11:00,
2013-04-19 16:21:00,36.0,11.0,-100.00,SE,145,7.0,23.0,36,-99.99,,,-99.99,,2013-04-19 21:21:00,
2013-04-19 16:43:00,32.0,15.0,-100.00,SE,135,7.0,24.0,50,-99.99,,,-99.99,,2013-04-19 21:43:00,
2013-04-19 16:53:00,32.0,15.0,-100.00,SE,135,7.0,24.0,50,-99.99,,,-99.99,,2013-04-19 21:53:00,
2013-04-19 17:02:00,32.0,15.0,-100.00,SE,135,7.0,24.0,50,-99.99,,,-99.99,,2013-04-19 22:02:00,
2013-04-19 17:12:00,32.0,15.0,-100.00,SE,135,7.0,24.0,50,-99.99,,,-99.99,,2013-04-19 22:12:00,
2013-04-19 17:22:00,32.0,15.0,-100.00,SE,135,7.0,24.0,50,-99.99,,,-99.99,,2013-04-19 22:22:00,
2013-04-19 17:52:00,33.0,18.0,-100.00,SSE,160,11.0,23.0,54,-99.99,,,-99.99,,2013-04-19 22:52:00,
2013-04-19 18:03:00,33.0,18.0,-100.00,SSE,160,11.0,23.0,54,-99.99,,,-99.99,,2013-04-19 23:03:00,
2013-04-19 18:11:00,33.0,18.0,-100.00,SSE,160,11.0,23.0,54,-99.99,,,-99.99,,2013-04-19 23:11:00,
2013-04-19 18:22:00,33.0,18.0,-100.00,SSE,160,11.0,23.0,54,-99.99,,,-99.99,,2013-04-19 23:22:00,
2013-04-19 18:42:00,31.0,17.0,-100.00,South,185,9.0,22.0,56,-99.99,,,-99.99,,2013-04-19 23:42:00,
2013-04-19 18:52:00,31.0,17.0,-100.00,South,185,9.0,22.0,56,-99.99,,,-99.99,,2013-04-19 23:52:00,
2013-04-19 19:02:00,31.0,17.0,-100.00,South,185,9.0,22.0,56,-99.99,,,-99.99,,2013-04-20 00:02:00,
2013-04-19 19:12:00,31.0,17.0,-100.00,South,185,9.0,22.0,56,-99.99,,,-99.99,,2013-04-20 00:12:00,
2013-04-19 19:21:00,31.0,17.0,-100.00,South,185,9.0,22.0,56,-99.99,,,-99.99,,2013-04-20 00:21:00,
2013-04-19 19:42:00,30.0,12.0,-100.00,South,180,9.0,25.0,47,-99.99,,,-99.99,,2013-04-20 00:42:00,
2013-04-19 19:52:00,30.0,12.0,-100.00,South,180,9.0,25.0,47,-99.99,,,-99.99,,2013-04-20 00:52:00,
2013-04-19 20:01:00,30.0,12.0,-100.00,South,180,9.0,25.0,47,-99.99,,,-99.99,,2013-04-20 01:01:00,
2013-04-19 20:11:00,30.0,12.0,-100.00,South,180,9.0,25.0,47,-99.99,,,-99.99,,2013-04-20 01:11:00,
2013-04-19 20:42:00,29.0,11.0,-100.00,South,180,8.0,17.0,47,-99.99,,,-99.99,,2013-04-20 01:42:00,
2013-04-19 20:52:00,29.0,11.0,-100.00,South,180,8.0,17.0,47,-99.99,,,-99.99,,2013-04-20 01:52:00,
2013-04-19 21:01:00,29.0,11.0,-100.00,South,180,8.0,17.0,47,-99.99,,,-99.99,,2013-04-20 02:01:00,
2013-04-19 21:11:00,29.0,11.0,-100.00,South,180,8.0,17.0,47,-99.99,,,-99.99,,2013-04-20 02:11:00,
2013-04-19 21:21:00,29.0,11.0,-100.00,South,180,8.0,17.0,47,-99.99,,,-99.99,,2013-04-20 02:21:00,
2013-04-19 21:42:00,28.0,9.0,-100.00,South,180,11.0,19.0,45,-99.99,,,-99.99,,2013-04-20 02:42:00,
2013-04-19 21:52:00,28.0,9.0,-100.00,South,180,11.0,19.0,45,-99.99,,,-99.99,,2013-04-20 02:52:00,
2013-04-19 22:01:00,28.0,9.0,-100.00,South,180,11.0,19.0,45,-99.99,,,-99.99,,2013-04-20 03:01:00,
2013-04-19 22:11:00,28.0,9.0,-100.00,South,180,11.0,19.0,45,-99.99,,,-99.99,,2013-04-20 03:11:00,
2013-04-19 22:21:00,28.0,9.0,-100.00,South,180,11.0,19.0,45,-99.99,,,-99.99,,2013-04-20 03:21:00,
2013-04-19 22:53:00,28.0,10.0,-100.00,South,185,7.0,14.0,48,-99.99,,,-99.99,,2013-04-20 03:53:00,
2013-04-19 23:03:00,28.0,10.0,-100.00,South,185,7.0,14.0,48,-99.99,,,-99.99,,2013-04-20 04:03:00,
2013-04-19 23:12:00,28.0,10.0,-100.00,South,185,7.0,14.0,48,-99.99,,,-99.99,,2013-04-20 04:12:00,
2013-04-19 23:23:00,28.0,10.0,-100.00,South,185,7.0,14.0,48,-99.99,,,-99.99,,2013-04-20 04:23:00,
2013-04-19 23:43:00,26.0,9.0,-100.00,SSW,210,6.0,14.0,48,-99.99,,,-99.99,,2013-04-20 04:43:00,
2013-04-19 23:53:00,26.0,9.0,-100.00,SSW,210,6.0,14.0,48,-99.99,,,-99.99,,2013-04-20 04:53:00,